createdAt,value
2018-08-18T00:00:02.311Z,75.30
2018-08-18T00:01:02.300Z,74.14
2018-08-18T00:02:02.287Z,75.59
2018-08-18T00:03:02.277Z,75.20
2018-08-18T00:04:02.264Z,76.75
2018-08-18T00:05:02.254Z,76.45
2018-08-18T00:06:02.241Z,74.05
2018-08-18T00:07:02.232Z,73.72
2018-08-18T00:08:02.216Z,75.30
2018-08-18T00:09:02.207Z,76.32
2018-08-18T00:10:02.197Z,76.13
2018-08-18T00:11:02.186Z,77.76
2018-08-18T00:12:02.171Z,79.35
2018-08-18T00:13:02.158Z,76.71
2018-08-18T00:14:02.144Z,77.51
2018-08-18T00:15:02.135Z,78.09
2018-08-18T00:16:02.142Z,76.75
2018-08-18T00:17:02.109Z,77.13
2018-08-18T00:18:02.098Z,76.26
2018-08-18T00:19:02.103Z,79.06
2018-08-18T00:20:02.072Z,78.19
2018-08-18T00:21:02.060Z,77.03
2018-08-18T00:22:02.051Z,79.35
2018-08-18T00:24:02.028Z,79.35
2018-08-18T00:25:02.029Z,80.02
2018-08-18T00:26:02.023Z,78.09
2018-08-18T00:27:01.992Z,80.89
2018-08-18T00:28:01.979Z,76.45
2018-08-18T00:29:01.965Z,77.13
2018-08-18T00:30:01.959Z,80.02
2018-08-18T00:31:01.944Z,77.61
2018-08-18T00:32:01.934Z,77.42
2018-08-18T00:33:02.137Z,74.24
2018-08-18T00:34:01.962Z,78.09
2018-08-18T00:36:01.881Z,78.38
2018-08-18T00:37:01.874Z,78.58
2018-08-18T00:38:01.858Z,78.38
2018-08-18T00:39:01.850Z,77.13
2018-08-18T00:40:01.836Z,76.36
2018-08-18T00:41:01.821Z,76.75
2018-08-18T00:42:01.812Z,79.83
2018-08-18T00:43:01.797Z,78.58
2018-08-18T00:44:01.784Z,78.38
2018-08-18T00:45:01.778Z,79.44
2018-08-18T00:46:01.759Z,75.10
2018-08-18T00:47:01.748Z,75.65
2018-08-18T00:48:01.737Z,77.38
2018-08-18T00:49:01.726Z,79.98
2018-08-18T00:50:01.713Z,80.08
2018-08-18T00:51:01.700Z,79.21
2018-08-18T00:52:01.687Z,74.97
2018-08-18T00:53:01.675Z,80.18
2018-08-18T00:54:01.664Z,79.11
2018-08-18T00:55:01.652Z,76.51
2018-08-18T00:56:01.637Z,75.74
2018-08-18T00:57:01.633Z,79.60
2018-08-18T00:58:01.623Z,76.51
2018-08-18T00:59:01.604Z,76.03
2018-08-18T01:00:01.594Z,78.92
2018-08-18T01:01:01.580Z,77.09
2018-08-18T01:02:01.567Z,75.45
2018-08-18T01:03:01.555Z,79.79
2018-08-18T01:04:01.544Z,79.89
2018-08-18T01:05:01.534Z,79.79
2018-08-18T01:06:01.523Z,80.76
2018-08-18T01:07:01.511Z,80.66
2018-08-18T01:08:01.494Z,76.51
2018-08-18T01:09:01.482Z,78.83
2018-08-18T01:10:01.469Z,79.79
2018-08-18T01:11:01.581Z,79.02
2018-08-18T01:12:01.598Z,78.44
2018-08-18T01:13:01.525Z,78.83
2018-08-18T01:14:01.546Z,79.69
2018-08-18T01:15:01.459Z,76.90
2018-08-18T01:16:01.401Z,79.11
2018-08-18T01:17:01.393Z,79.31
2018-08-18T01:18:01.375Z,78.73
2018-08-18T01:19:01.365Z,80.18
2018-08-18T01:20:01.348Z,81.04
2018-08-18T01:21:01.336Z,80.08
2018-08-18T01:22:01.326Z,81.43
2018-08-18T01:23:01.310Z,80.94
2018-08-18T01:24:01.300Z,78.06
2018-08-18T01:25:01.300Z,79.89
2018-08-18T01:26:01.274Z,81.14
2018-08-18T01:27:01.339Z,81.62
2018-08-18T01:28:01.248Z,76.13
2018-08-18T01:29:01.239Z,79.50
2018-08-18T01:30:01.226Z,79.60
2018-08-18T01:31:01.215Z,81.52
2018-08-18T01:32:01.203Z,80.66
2018-08-18T01:33:01.188Z,81.04
2018-08-18T01:34:01.179Z,80.56
2018-08-18T01:35:01.167Z,79.02
2018-08-18T01:36:01.152Z,76.80
2018-08-18T01:37:01.144Z,80.08
2018-08-18T01:38:01.131Z,77.38
2018-08-18T01:39:01.133Z,77.48
2018-08-18T01:40:01.107Z,78.25
2018-08-18T01:41:01.091Z,77.67
2018-08-18T01:42:01.078Z,76.90
2018-08-18T01:43:01.067Z,76.57
2018-08-18T01:44:01.053Z,77.25
2018-08-18T01:45:01.042Z,78.40
2018-08-18T01:46:01.030Z,77.83
2018-08-18T01:47:01.017Z,76.86
2018-08-18T01:48:01.003Z,78.50
2018-08-18T01:49:00.994Z,77.63
2018-08-18T01:50:00.980Z,77.25
2018-08-18T01:51:00.970Z,77.73
2018-08-18T01:52:00.959Z,77.25
2018-08-18T01:53:00.946Z,79.85
2018-08-18T01:54:00.930Z,80.71
2018-08-18T01:55:00.921Z,78.11
2018-08-18T01:56:00.907Z,79.75
2018-08-18T01:57:00.896Z,79.94
2018-08-18T01:58:00.885Z,80.23
2018-08-18T01:59:00.870Z,81.39
2018-08-18T02:00:00.857Z,78.69
2018-08-18T02:01:00.844Z,78.21
2018-08-18T02:02:00.834Z,77.63
2018-08-18T02:03:00.822Z,77.63
2018-08-18T02:04:00.809Z,77.73
2018-08-18T02:05:00.795Z,78.40
2018-08-18T02:06:00.788Z,78.11
2018-08-18T02:07:00.771Z,78.21
2018-08-18T02:08:00.755Z,79.08
2018-08-18T02:09:00.748Z,82.35
2018-08-18T02:10:00.733Z,82.54
2018-08-18T02:11:00.719Z,82.54
2018-08-18T02:12:00.707Z,80.62
2018-08-18T02:13:00.694Z,80.52
2018-08-18T02:14:00.686Z,81.20
2018-08-18T02:15:00.678Z,80.71
2018-08-18T02:16:00.658Z,77.73
2018-08-18T02:17:00.646Z,77.06
2018-08-18T02:18:00.632Z,78.50
2018-08-18T02:19:00.621Z,78.79
2018-08-18T02:20:00.676Z,81.77
2018-08-18T02:21:00.597Z,82.26
2018-08-18T02:22:00.583Z,81.58
2018-08-18T02:23:00.573Z,80.71
2018-08-18T02:24:00.559Z,81.20
2018-08-18T02:25:00.545Z,80.81
2018-08-18T02:26:00.534Z,81.10
2018-08-18T02:27:00.522Z,81.58
2018-08-18T02:28:00.515Z,79.17
2018-08-18T02:29:00.496Z,77.63
2018-08-18T02:30:00.491Z,79.08
2018-08-18T02:31:00.472Z,81.29
2018-08-18T02:32:00.459Z,80.81
2018-08-18T02:33:00.448Z,78.02
2018-08-18T02:34:00.434Z,81.01
2018-08-18T02:35:00.423Z,80.81
2018-08-18T02:36:00.407Z,81.87
2018-08-18T02:37:00.396Z,80.23
2018-08-18T02:38:00.383Z,79.27
2018-08-18T02:39:00.371Z,78.88
2018-08-18T02:40:00.438Z,79.66
2018-08-18T02:41:00.347Z,78.79
2018-08-18T02:42:00.333Z,80.43
2018-08-18T02:43:00.322Z,81.39
2018-08-18T02:44:00.308Z,81.58
2018-08-18T02:45:00.293Z,81.48
2018-08-18T02:46:00.283Z,79.75
2018-08-18T02:47:00.271Z,79.85
2018-08-18T02:48:00.258Z,81.58
2018-08-18T02:49:00.244Z,81.01
2018-08-18T02:50:00.237Z,82.26
2018-08-18T02:51:00.220Z,83.22
2018-08-18T02:52:00.209Z,82.45
2018-08-18T02:53:00.195Z,80.91
2018-08-18T02:54:00.184Z,83.03
2018-08-18T02:55:00.169Z,82.45
2018-08-18T02:56:00.159Z,81.87
2018-08-18T02:57:00.146Z,82.93
2018-08-18T02:58:00.133Z,82.98
2018-08-18T02:59:00.119Z,80.81
2018-08-18T03:00:00.106Z,79.85
2018-08-18T03:01:00.097Z,80.71
2018-08-18T03:02:00.080Z,80.14
2018-08-18T03:03:00.070Z,80.48
2018-08-18T03:04:00.059Z,80.48
2018-08-18T03:05:00.044Z,82.98
2018-08-18T03:06:00.032Z,83.41
2018-08-18T03:07:00.018Z,81.87
2018-08-18T03:08:00.096Z,80.71
2018-08-18T03:08:59.991Z,83.31
2018-08-18T03:09:59.979Z,84.09
2018-08-18T03:10:59.967Z,81.20
2018-08-18T03:11:59.954Z,82.16
2018-08-18T03:12:59.945Z,83.31
2018-08-18T03:13:59.935Z,83.89
2018-08-18T03:14:59.918Z,83.22
2018-08-18T03:15:59.905Z,82.45
2018-08-18T03:16:59.894Z,81.10
2018-08-18T03:17:59.879Z,81.29
2018-08-18T03:18:59.867Z,83.31
2018-08-18T03:19:59.853Z,81.96
2018-08-18T03:20:59.847Z,82.45
2018-08-18T03:21:59.828Z,80.81
2018-08-18T03:22:59.822Z,80.77
2018-08-18T03:23:59.802Z,81.93
2018-08-18T03:24:59.791Z,82.21
2018-08-18T03:25:59.776Z,82.21
2018-08-18T03:26:59.768Z,82.75
2018-08-18T03:27:59.751Z,82.94
2018-08-18T03:28:59.752Z,83.72
2018-08-18T03:29:59.724Z,82.85
2018-08-18T03:30:59.721Z,83.81
2018-08-18T03:31:59.698Z,84.29
2018-08-18T03:32:59.685Z,84.77
2018-08-18T03:33:59.674Z,85.93
2018-08-18T03:34:59.662Z,84.77
2018-08-18T03:35:59.648Z,83.62
2018-08-18T03:36:59.642Z,83.33
2018-08-18T03:37:59.623Z,83.81
2018-08-18T03:38:59.625Z,83.81
2018-08-18T03:39:59.595Z,84.19
2018-08-18T03:40:59.584Z,84.39
2018-08-18T03:41:59.571Z,84.39
2018-08-18T03:42:59.557Z,84.58
2018-08-18T03:43:59.545Z,84.58
2018-08-18T03:44:59.532Z,84.77
2018-08-18T03:45:59.524Z,86.22
2018-08-18T03:46:59.511Z,85.64
2018-08-18T03:47:59.496Z,85.16
2018-08-18T03:48:59.487Z,86.22
2018-08-18T03:49:59.469Z,86.60
2018-08-18T03:50:59.457Z,85.54
2018-08-18T03:51:59.443Z,86.51
2018-08-18T03:52:59.431Z,85.35
2018-08-18T03:53:59.417Z,85.25
2018-08-18T03:54:59.405Z,84.67
2018-08-18T03:55:59.390Z,85.44
2018-08-18T03:56:59.377Z,86.31
2018-08-18T03:57:59.365Z,84.77
2018-08-18T03:58:59.353Z,84.87
2018-08-18T03:59:59.343Z,84.97
2018-08-18T04:00:59.324Z,84.97
2018-08-18T04:01:59.394Z,86.41
2018-08-18T04:02:59.300Z,85.64
2018-08-18T04:03:59.288Z,86.31
2018-08-18T04:04:59.275Z,85.35
2018-08-18T04:05:59.263Z,84.97
2018-08-18T04:06:59.249Z,84.87
2018-08-18T04:07:59.234Z,85.54
2018-08-18T04:08:59.221Z,85.60
2018-08-18T04:09:59.210Z,86.36
2018-08-18T04:10:59.199Z,85.40
2018-08-18T04:11:59.190Z,85.78
2018-08-18T04:12:59.170Z,86.36
2018-08-18T04:13:59.159Z,86.36
2018-08-18T04:14:59.145Z,86.27
2018-08-18T04:15:59.131Z,86.27
2018-08-18T04:16:59.167Z,85.16
2018-08-18T04:17:59.108Z,85.74
2018-08-18T04:18:59.146Z,86.69
2018-08-18T04:19:59.080Z,87.08
2018-08-18T04:20:59.067Z,86.41
2018-08-18T04:21:59.054Z,85.35
2018-08-18T04:22:59.041Z,86.60
2018-08-18T04:23:59.027Z,85.74
2018-08-18T04:24:59.014Z,86.89
2018-08-18T04:25:59.001Z,86.31
2018-08-18T04:26:58.989Z,85.64
2018-08-18T04:27:58.977Z,86.31
2018-08-18T04:28:58.963Z,86.31
2018-08-18T04:29:58.949Z,86.31
2018-08-18T04:30:58.936Z,85.93
2018-08-18T04:31:58.921Z,86.22
2018-08-18T04:32:58.909Z,86.22
2018-08-18T04:33:58.895Z,86.51
2018-08-18T04:34:58.882Z,87.27
2018-08-18T04:35:58.870Z,87.18
2018-08-18T04:36:58.857Z,87.37
2018-08-18T04:37:58.842Z,87.37
2018-08-18T04:38:58.830Z,86.85
2018-08-18T04:39:58.823Z,87.18
2018-08-18T04:40:58.804Z,86.79
2018-08-18T04:41:58.793Z,86.99
2018-08-18T04:42:58.778Z,87.18
2018-08-18T04:43:58.851Z,87.27
2018-08-18T04:44:58.752Z,86.12
2018-08-18T04:45:58.741Z,86.79
2018-08-18T04:46:58.729Z,86.22
2018-08-18T04:47:58.711Z,86.31
2018-08-18T04:48:58.700Z,86.60
2018-08-18T04:49:58.685Z,86.99
2018-08-18T04:50:58.676Z,86.60
2018-08-18T04:51:58.660Z,86.51
2018-08-18T04:52:58.647Z,85.44
2018-08-18T04:53:58.634Z,85.74
2018-08-18T04:54:58.623Z,86.02
2018-08-18T04:55:58.610Z,86.22
2018-08-18T04:56:58.656Z,85.35
2018-08-18T04:57:58.580Z,85.93
2018-08-18T04:58:58.574Z,86.41
2018-08-18T04:59:58.557Z,85.35
2018-08-18T05:00:58.545Z,85.64
2018-08-18T05:01:58.530Z,86.41
2018-08-18T05:02:58.517Z,86.41
2018-08-18T05:03:58.507Z,86.22
2018-08-18T05:04:58.490Z,85.25
2018-08-18T05:05:58.476Z,85.35
2018-08-18T05:06:58.462Z,85.35
2018-08-18T05:07:58.453Z,85.44
2018-08-18T05:08:58.563Z,85.25
2018-08-18T05:09:58.421Z,85.25
2018-08-18T05:10:58.406Z,84.77
2018-08-18T05:11:58.398Z,84.29
2018-08-18T05:12:58.382Z,85.49
2018-08-18T05:13:58.367Z,84.77
2018-08-18T05:14:58.354Z,85.06
2018-08-18T05:15:58.344Z,84.77
2018-08-18T05:16:58.327Z,84.19
2018-08-18T05:17:58.314Z,85.35
2018-08-18T05:18:58.351Z,84.00
2018-08-18T05:19:58.291Z,84.19
2018-08-18T05:20:58.274Z,84.10
2018-08-18T05:21:58.266Z,85.16
2018-08-18T05:22:58.249Z,85.35
2018-08-18T05:23:58.242Z,84.39
2018-08-18T05:24:58.222Z,85.35
2018-08-18T05:25:58.211Z,84.29
2018-08-18T05:26:58.200Z,84.39
2018-08-18T05:27:58.183Z,84.39
2018-08-18T05:28:58.172Z,85.35
2018-08-18T05:29:58.156Z,85.00
2018-08-18T05:30:58.143Z,84.19
2018-08-18T05:31:58.132Z,84.19
2018-08-18T05:32:58.133Z,84.39
2018-08-18T05:33:58.102Z,84.29
2018-08-18T05:34:58.090Z,84.19
2018-08-18T05:35:58.078Z,84.19
2018-08-18T05:36:58.064Z,84.39
2018-08-18T05:37:58.050Z,84.58
2018-08-18T05:38:58.039Z,84.19
2018-08-18T05:39:58.023Z,84.53
2018-08-18T05:40:58.011Z,84.29
2018-08-18T05:41:57.997Z,84.72
2018-08-18T05:42:57.988Z,85.06
2018-08-18T05:43:57.974Z,84.23
2018-08-18T05:44:57.964Z,84.43
2018-08-18T05:45:57.948Z,84.33
2018-08-18T05:46:57.934Z,83.95
2018-08-18T05:47:57.915Z,84.05
2018-08-18T05:48:57.905Z,83.80
2018-08-18T05:49:57.895Z,83.89
2018-08-18T05:50:57.880Z,84.47
2018-08-18T05:51:57.866Z,83.31
2018-08-18T05:52:57.857Z,82.35
2018-08-18T05:53:57.842Z,82.35
2018-08-18T05:54:57.835Z,83.03
2018-08-18T05:55:57.814Z,83.31
2018-08-18T05:56:57.808Z,82.16
2018-08-18T05:57:57.788Z,81.87
2018-08-18T05:58:57.779Z,81.77
2018-08-18T05:59:57.761Z,81.39
2018-08-18T06:00:57.754Z,81.20
2018-08-18T06:01:57.735Z,83.22
2018-08-18T06:02:57.727Z,83.12
2018-08-18T06:03:57.713Z,82.06
2018-08-18T06:04:57.701Z,81.33
2018-08-18T06:05:57.684Z,79.94
2018-08-18T06:06:57.672Z,80.23
2018-08-18T06:07:57.659Z,79.94
2018-08-18T06:08:57.647Z,80.62
2018-08-18T06:09:57.632Z,80.04
2018-08-18T06:10:57.621Z,79.60
2018-08-18T06:11:57.625Z,80.56
2018-08-18T06:12:57.594Z,80.76
2018-08-18T06:13:57.581Z,80.27
2018-08-18T06:14:57.571Z,79.79
2018-08-18T06:15:57.558Z,80.08
2018-08-18T06:16:57.544Z,78.63
2018-08-18T06:17:57.532Z,78.54
2018-08-18T06:18:57.519Z,78.34
2018-08-18T06:19:57.506Z,78.44
2018-08-18T06:20:57.493Z,79.21
2018-08-18T06:21:57.482Z,79.89
2018-08-18T06:22:57.469Z,80.27
2018-08-18T06:23:57.457Z,78.44
2018-08-18T06:24:57.449Z,79.69
2018-08-18T06:25:57.431Z,79.89
2018-08-18T06:26:57.426Z,78.86
2018-08-18T06:27:57.407Z,78.77
2018-08-18T06:28:57.394Z,79.25
2018-08-18T06:29:57.384Z,79.35
2018-08-18T06:30:57.369Z,78.48
2018-08-18T06:31:57.360Z,76.55
2018-08-18T06:32:57.346Z,78.19
2018-08-18T06:33:57.334Z,77.42
2018-08-18T06:34:57.450Z,76.59
2018-08-18T06:35:57.317Z,76.68
2018-08-18T06:36:57.296Z,78.23
2018-08-18T06:37:57.282Z,76.68
2018-08-18T06:38:57.275Z,75.24
2018-08-18T06:39:57.258Z,74.37
2018-08-18T06:40:57.251Z,76.20
2018-08-18T06:41:57.393Z,76.20
2018-08-18T06:42:57.222Z,74.85
2018-08-18T06:43:57.212Z,74.21
2018-08-18T06:44:57.197Z,74.79
2018-08-18T06:45:57.185Z,73.83
2018-08-18T06:46:57.179Z,73.83
2018-08-18T06:47:57.161Z,73.15
2018-08-18T06:48:57.148Z,73.15
2018-08-18T06:49:57.138Z,72.58
2018-08-18T06:50:57.125Z,74.02
2018-08-18T06:51:57.114Z,74.21
2018-08-18T06:52:57.102Z,72.86
2018-08-18T06:53:57.094Z,72.80
2018-08-18T06:54:57.275Z,72.90
2018-08-18T06:55:57.066Z,71.16
2018-08-18T06:56:57.072Z,71.36
2018-08-18T06:57:57.045Z,72.13
2018-08-18T06:58:57.032Z,70.29
2018-08-18T06:59:57.029Z,69.94
2018-08-18T07:00:57.009Z,70.14
2018-08-18T07:01:56.995Z,68.98
2018-08-18T07:02:56.983Z,70.62
2018-08-18T07:03:56.972Z,69.94
2018-08-18T07:04:56.959Z,68.78
2018-08-18T07:05:56.978Z,67.72
2018-08-18T07:06:56.936Z,68.10
2018-08-18T07:07:56.923Z,68.91
2018-08-18T07:08:56.915Z,66.63
2018-08-18T07:09:56.902Z,65.56
2018-08-18T07:10:56.891Z,65.11
2018-08-18T07:11:56.878Z,63.49
2018-08-18T07:12:56.873Z,61.59
2018-08-18T07:13:56.856Z,60.30
2018-08-18T07:14:56.845Z,58.97
2018-08-18T07:15:56.836Z,57.90
2018-08-18T07:16:56.827Z,56.89
2018-08-18T07:17:56.814Z,54.88
2018-08-18T07:18:56.803Z,55.07
2018-08-18T07:19:56.791Z,54.22
2018-08-18T07:20:56.782Z,54.03
2018-08-18T07:21:56.769Z,54.05
2018-08-18T07:22:56.764Z,53.50
2018-08-18T07:23:56.750Z,53.04
2018-08-18T07:24:56.737Z,51.97
2018-08-18T07:25:56.738Z,51.19
2018-08-18T07:26:56.718Z,50.90
2018-08-18T07:27:56.707Z,50.92
2018-08-18T07:28:56.827Z,49.58
2018-08-18T07:29:56.728Z,48.02
2018-08-18T07:30:56.688Z,49.00
2018-08-18T07:31:56.674Z,48.93
2018-08-18T07:32:56.666Z,45.90
2018-08-18T07:33:56.654Z,44.37
2018-08-18T07:34:56.646Z,43.59
2018-08-18T07:35:56.642Z,43.99
2018-08-18T07:36:57.164Z,43.53
2018-08-18T07:37:56.619Z,43.43
2018-08-18T07:38:56.629Z,41.87
2018-08-18T07:39:56.602Z,44.56
2018-08-18T07:40:56.595Z,44.17
2018-08-18T07:41:56.605Z,44.44
2018-08-18T07:42:56.590Z,44.44
2018-08-18T07:43:56.775Z,44.34
2018-08-18T07:44:56.579Z,44.32
2018-08-18T07:46:56.549Z,44.98
2018-08-18T07:47:56.597Z,46.25
2018-08-18T07:48:57.467Z,46.20
2018-08-18T07:50:56.525Z,45.68
2018-08-18T07:51:56.516Z,43.61
2018-08-18T07:52:56.505Z,45.15
2018-08-18T07:53:56.499Z,45.25
2018-08-18T07:54:56.493Z,46.49
2018-08-18T07:55:56.486Z,47.15
2018-08-18T07:56:56.479Z,46.93
2018-08-18T07:57:56.476Z,46.95
2018-08-18T07:58:56.468Z,48.05
2018-08-18T07:59:56.512Z,47.00
2018-08-18T08:00:56.473Z,45.65
2018-08-18T08:01:56.445Z,44.41
2018-08-18T08:02:56.440Z,44.31
2018-08-18T08:03:56.432Z,43.92
2018-08-18T08:04:56.480Z,43.43
2018-08-18T08:05:56.422Z,44.17
2018-08-18T08:06:56.415Z,45.22
2018-08-18T08:07:56.406Z,45.88
2018-08-18T08:08:56.402Z,46.93
2018-08-18T08:09:56.394Z,48.88
2018-08-18T08:10:56.392Z,46.93
2018-08-18T08:11:56.381Z,46.34
2018-08-18T08:12:56.412Z,46.42
2018-08-18T08:13:56.371Z,46.93
2018-08-18T08:14:56.365Z,46.37
2018-08-18T08:15:56.359Z,46.08
2018-08-18T08:16:56.352Z,45.81
2018-08-18T08:17:56.347Z,43.95
2018-08-18T08:18:56.344Z,44.17
2018-08-18T08:19:56.333Z,43.39
2018-08-18T08:20:56.327Z,41.56
2018-08-18T08:21:56.321Z,42.65
2018-08-18T08:22:56.315Z,41.97
2018-08-18T08:23:56.311Z,41.41
2018-08-18T08:24:56.304Z,41.91
2018-08-18T08:25:56.301Z,40.74
2018-08-18T08:26:56.301Z,41.91
2018-08-18T08:27:56.288Z,40.84
2018-08-18T08:28:56.282Z,38.63
2018-08-18T08:29:56.276Z,38.75
2018-08-18T08:30:56.274Z,38.75
2018-08-18T08:31:56.273Z,39.92
2018-08-18T08:32:56.260Z,38.02
2018-08-18T08:33:56.255Z,39.08
2018-08-18T08:35:56.263Z,40.72
2018-08-18T08:36:56.285Z,39.65
2018-08-18T08:37:56.553Z,39.55
2018-08-18T08:38:56.225Z,40.41
2018-08-18T08:39:56.222Z,40.78
2018-08-18T08:40:56.537Z,40.58
2018-08-18T08:41:56.219Z,42.02
2018-08-18T08:42:56.362Z,42.41
2018-08-18T08:43:56.200Z,40.45
2018-08-18T08:44:56.196Z,42.69
2018-08-18T08:45:56.416Z,41.60
2018-08-18T08:46:56.184Z,41.11
2018-08-18T08:48:56.519Z,42.65
2018-08-18T08:49:56.486Z,42.53
2018-08-18T08:54:23.050Z,44.89
2018-08-18T08:55:22.752Z,43.91
2018-08-18T09:04:53.341Z,42.90
2018-08-18T09:09:28.272Z,41.35
2018-08-18T09:10:27.866Z,42.02
2018-08-18T09:11:27.638Z,42.14
2018-08-18T09:12:27.630Z,41.66
2018-08-18T09:13:27.626Z,41.83
2018-08-18T09:14:27.618Z,41.63
2018-08-18T09:15:27.612Z,41.73
2018-08-18T09:16:27.607Z,42.32
2018-08-18T09:17:27.599Z,41.54
2018-08-18T09:18:27.594Z,41.71
2018-08-18T09:19:27.588Z,42.98
2018-08-18T09:20:27.581Z,44.03
2018-08-18T09:21:27.577Z,44.23
2018-08-18T09:22:27.570Z,44.40
2018-08-18T09:23:27.567Z,44.59
2018-08-18T09:24:27.559Z,43.71
2018-08-18T09:25:27.551Z,44.59
2018-08-18T09:26:27.566Z,44.67
2018-08-18T09:27:27.544Z,42.63
2018-08-18T09:28:27.536Z,42.33
2018-08-18T09:29:27.529Z,42.41
2018-08-18T09:30:27.527Z,43.48
2018-08-18T09:31:27.516Z,44.26
2018-08-18T09:32:27.513Z,46.78
2018-08-18T09:33:27.505Z,44.14
2018-08-18T09:34:27.497Z,45.79
2018-08-18T09:35:27.491Z,47.71
2018-08-18T09:36:27.485Z,47.40
2018-08-18T09:37:27.478Z,46.91
2018-08-18T09:38:27.471Z,47.47
2018-08-18T09:39:27.465Z,46.79
2018-08-18T09:40:27.458Z,47.38
2018-08-18T09:41:27.457Z,47.66
2018-08-18T09:42:27.442Z,47.57
2018-08-18T09:43:27.438Z,47.28
2018-08-18T09:44:27.430Z,47.18
2018-08-18T09:45:27.473Z,48.73
2018-08-18T09:46:27.501Z,48.05
2018-08-18T09:47:27.411Z,47.96
2018-08-18T09:48:27.628Z,47.66
2018-08-18T09:49:27.392Z,46.69
2018-08-18T09:50:27.385Z,46.96
2018-08-18T09:51:27.379Z,48.03
2018-08-18T09:52:27.372Z,48.32
2018-08-18T09:53:27.365Z,48.32
2018-08-18T09:54:27.360Z,48.52
2018-08-18T09:55:27.360Z,48.22
2018-08-18T09:56:27.347Z,48.35
2018-08-18T09:57:27.338Z,46.98
2018-08-18T09:58:27.328Z,46.79
2018-08-18T09:59:27.332Z,46.60
2018-08-18T10:00:27.318Z,46.89
2018-08-18T10:01:27.318Z,45.55
2018-08-18T10:02:27.299Z,45.45
2018-08-18T10:03:27.293Z,45.07
2018-08-18T10:04:27.285Z,45.75
2018-08-18T10:05:27.278Z,45.26
2018-08-18T10:06:27.289Z,45.43
2018-08-18T10:07:27.266Z,46.79
2018-08-18T10:08:27.254Z,46.01
2018-08-18T10:09:27.247Z,46.21
2018-08-18T10:10:27.241Z,46.89
2018-08-18T10:11:27.249Z,47.08
2018-08-18T10:12:27.226Z,46.11
2018-08-18T10:13:27.223Z,45.45
2018-08-18T10:14:27.210Z,45.55
2018-08-18T10:15:27.313Z,44.38
2018-08-18T10:16:27.197Z,45.84
2018-08-18T10:17:27.195Z,46.33
2018-08-18T10:18:27.178Z,47.01
2018-08-18T10:19:27.172Z,48.75
2018-08-18T10:20:27.167Z,46.74
2018-08-18T10:21:27.170Z,46.94
2018-08-18T10:22:27.159Z,46.84
2018-08-18T10:23:27.145Z,47.03
2018-08-18T10:24:27.147Z,46.06
2018-08-18T10:25:27.131Z,47.13
2018-08-18T10:26:27.124Z,46.84
2018-08-18T10:27:27.219Z,45.57
2018-08-18T10:28:27.114Z,45.79
2018-08-18T10:29:27.103Z,44.70
2018-08-18T10:30:27.097Z,45.57
2018-08-18T10:31:27.089Z,45.57
2018-08-18T10:32:27.087Z,46.06
2018-08-18T10:33:27.179Z,44.51
2018-08-18T10:34:27.068Z,44.51
2018-08-18T10:35:27.067Z,45.77
2018-08-18T10:36:27.054Z,44.89
2018-08-18T10:37:27.047Z,45.50
2018-08-18T10:38:27.043Z,45.50
2018-08-18T10:39:27.037Z,45.89
2018-08-18T10:40:27.033Z,45.40
2018-08-18T10:41:27.018Z,44.72
2018-08-18T10:42:27.016Z,43.96
2018-08-18T10:43:27.004Z,44.04
2018-08-18T10:44:27.004Z,44.26
2018-08-18T10:45:26.992Z,43.60
2018-08-18T10:46:26.986Z,42.99
2018-08-18T10:47:26.980Z,43.50
2018-08-18T10:48:26.976Z,43.99
2018-08-18T10:49:26.967Z,43.11
2018-08-18T10:50:26.960Z,43.11
2018-08-18T10:51:27.006Z,41.94
2018-08-18T10:52:26.947Z,40.78
2018-08-18T10:53:26.941Z,42.35
2018-08-18T10:54:26.933Z,41.38
2018-08-18T10:55:26.928Z,41.19
2018-08-18T10:56:26.923Z,41.77
2018-08-18T10:57:26.915Z,43.93
2018-08-18T10:58:26.945Z,42.98
2018-08-18T10:59:26.904Z,40.56
2018-08-18T11:00:26.900Z,40.41
2018-08-18T11:01:26.893Z,39.43
2018-08-18T11:02:27.208Z,39.62
2018-08-18T11:03:26.881Z,38.48
2018-08-18T11:04:26.875Z,40.94
2018-08-18T11:05:26.873Z,38.40
2018-08-18T11:06:26.865Z,37.43
2018-08-18T11:07:26.861Z,36.87
2018-08-18T11:08:26.855Z,35.91
2018-08-18T11:09:26.848Z,34.45
2018-08-18T11:10:26.850Z,34.57
2018-08-18T11:11:26.846Z,33.79
2018-08-18T11:12:26.835Z,33.41
2018-08-18T11:13:26.829Z,34.88
2018-08-18T11:14:26.826Z,32.63
2018-08-18T11:15:26.824Z,32.71
2018-08-18T11:16:26.823Z,32.51
2018-08-18T11:17:26.813Z,34.38
2018-08-18T11:18:26.808Z,33.98
2018-08-18T11:19:26.805Z,33.53
2018-08-18T11:20:26.802Z,32.76
2018-08-18T11:21:26.796Z,31.89
2018-08-18T11:22:26.792Z,33.58
2018-08-18T11:23:26.795Z,31.41
2018-08-18T11:24:26.786Z,30.05
2018-08-18T11:25:26.782Z,31.92
2018-08-18T11:26:26.777Z,30.25
2018-08-18T11:27:26.775Z,29.94
2018-08-18T11:28:26.802Z,30.52
2018-08-18T11:29:26.769Z,31.50
2018-08-18T11:30:26.765Z,31.73
2018-08-18T11:31:26.761Z,29.87
2018-08-18T11:32:26.763Z,30.28
2018-08-18T11:33:26.777Z,29.21
2018-08-18T11:34:26.959Z,28.05
2018-08-18T11:35:26.752Z,28.05
2018-08-18T11:36:26.749Z,27.06
2018-08-18T11:37:27.757Z,29.63
2018-08-18T11:38:26.745Z,28.26
2018-08-18T11:39:26.745Z,27.17
2018-08-18T11:40:26.741Z,27.50
2018-08-18T11:41:26.768Z,26.31
2018-08-18T11:42:26.737Z,26.82
2018-08-18T11:43:26.737Z,25.93
2018-08-18T11:44:26.731Z,26.82
2018-08-18T11:45:26.733Z,25.73
2018-08-18T11:46:26.731Z,26.04
2018-08-18T11:47:26.728Z,25.93
2018-08-18T11:48:26.724Z,25.83
2018-08-18T11:49:26.725Z,27.31
2018-08-18T11:50:26.723Z,27.91
2018-08-18T11:51:26.719Z,27.41
2018-08-18T11:52:26.716Z,25.55
2018-08-18T11:53:26.716Z,25.24
2018-08-18T11:54:26.717Z,25.83
2018-08-18T11:55:26.711Z,25.93
2018-08-18T11:56:26.709Z,25.52
2018-08-18T11:57:26.708Z,26.90
2018-08-18T11:58:26.711Z,26.81
2018-08-18T11:59:26.705Z,26.13
2018-08-18T12:00:26.703Z,26.54
2018-08-18T12:01:26.704Z,25.76
2018-08-18T12:02:26.701Z,25.28
2018-08-18T12:03:26.700Z,25.77
2018-08-18T12:04:26.699Z,24.57
2018-08-18T12:05:26.696Z,24.49
2018-08-18T12:06:26.695Z,25.18
2018-08-18T12:07:26.695Z,24.29
2018-08-18T12:08:26.693Z,24.49
2018-08-18T12:09:26.690Z,24.09
2018-08-18T12:10:26.757Z,25.87
2018-08-18T12:11:26.692Z,24.57
2018-08-18T12:12:26.690Z,25.67
2018-08-18T12:13:26.689Z,24.79
2018-08-18T12:14:26.692Z,25.98
2018-08-18T12:15:26.686Z,25.59
2018-08-18T12:16:26.684Z,25.98
2018-08-18T12:17:26.684Z,26.68
2018-08-18T12:18:26.690Z,23.44
2018-08-18T12:19:27.694Z,24.72
2018-08-18T12:20:26.727Z,25.70
2018-08-18T12:21:26.681Z,25.89
2018-08-18T12:22:26.679Z,25.57
2018-08-18T12:23:26.682Z,25.56
2018-08-18T12:24:26.678Z,26.84
2018-08-18T12:25:26.677Z,25.74
2018-08-18T12:26:26.679Z,25.74
2018-08-18T12:27:26.674Z,27.03
2018-08-18T12:28:26.676Z,26.45
2018-08-18T12:29:26.729Z,25.86
2018-08-18T12:30:26.668Z,25.96
2018-08-18T12:31:26.668Z,26.96
2018-08-18T12:32:26.667Z,26.26
2018-08-18T12:33:26.666Z,24.49
2018-08-18T12:34:26.665Z,24.88
2018-08-18T12:35:26.661Z,24.49
2018-08-18T12:36:26.709Z,24.67
2018-08-18T12:37:26.729Z,26.17
2018-08-18T12:38:26.657Z,25.27
2018-08-18T12:39:26.654Z,24.79
2018-08-18T12:40:26.651Z,26.17
2018-08-18T12:41:26.652Z,27.55
2018-08-18T12:42:26.647Z,25.97
2018-08-18T12:43:26.687Z,24.09
2018-08-18T12:44:26.642Z,25.28
2018-08-18T12:45:26.640Z,26.65
2018-08-18T12:46:26.641Z,26.06
2018-08-18T12:47:26.635Z,26.06
2018-08-18T12:48:26.638Z,26.73
2018-08-18T12:49:26.636Z,25.95
2018-08-18T12:50:26.627Z,25.82
2018-08-18T12:51:26.628Z,25.90
2018-08-18T12:52:26.623Z,27.08
2018-08-18T12:53:26.620Z,26.77
2018-08-18T12:54:26.618Z,27.44
2018-08-18T12:55:26.616Z,28.89
2018-08-18T12:56:26.612Z,30.76
2018-08-18T12:57:26.609Z,30.85
2018-08-18T12:58:26.781Z,30.05
2018-08-18T12:59:26.608Z,29.37
2018-08-18T13:00:26.602Z,29.96
2018-08-18T13:01:26.612Z,29.94
2018-08-18T13:02:26.594Z,31.81
2018-08-18T13:03:26.591Z,31.90
2018-08-18T13:04:26.638Z,29.94
2018-08-18T13:05:26.589Z,30.43
2018-08-18T13:06:26.581Z,30.43
2018-08-18T13:07:26.579Z,30.91
2018-08-18T13:08:26.575Z,30.70
2018-08-18T13:09:26.574Z,31.47
2018-08-18T13:10:26.573Z,33.29
2018-08-18T13:11:26.581Z,32.12
2018-08-18T13:12:26.561Z,32.32
2018-08-18T13:13:26.562Z,35.44